sensor_id;sensor_type;location;lat;lon;timestamp;P1;durP1;ratioP1;P2;durP2;ratioP2
18084;SDS011;9169;44.492;11.372;2023-12-22T00:01:01;34.90;;;10.20;;
18084;SDS011;9169;44.492;11.372;2023-12-22T00:03:30;32.63;;;10.00;;
18084;SDS011;9169;44.492;11.372;2023-12-22T00:05:59;34.27;;;10.40;;
18084;SDS011;9169;44.492;11.372;2023-12-22T00:08:29;33.70;;;10.10;;
18084;SDS011;9169;44.492;11.372;2023-12-22T00:10:57;32.50;;;10.03;;
18084;SDS011;9169;44.492;11.372;2023-12-22T00:13:28;30.57;;;8.90;;
18084;SDS011;9169;44.492;11.372;2023-12-22T00:15:58;36.47;;;10.20;;
18084;SDS011;9169;44.492;11.372;2023-12-22T00:18:27;34.20;;;9.57;;
18084;SDS011;9169;44.492;11.372;2023-12-22T00:20:55;33.50;;;10.33;;
18084;SDS011;9169;44.492;11.372;2023-12-22T00:23:24;37.00;;;11.20;;
18084;SDS011;9169;44.492;11.372;2023-12-22T00:25:54;37.93;;;10.50;;
18084;SDS011;9169;44.492;11.372;2023-12-22T00:28:23;37.23;;;10.37;;
18084;SDS011;9169;44.492;11.372;2023-12-22T00:30:52;47.00;;;12.30;;
18084;SDS011;9169;44.492;11.372;2023-12-22T00:33:20;36.83;;;10.23;;
18084;SDS011;9169;44.492;11.372;2023-12-22T00:35:49;31.80;;;9.80;;
18084;SDS011;9169;44.492;11.372;2023-12-22T00:38:18;33.20;;;10.60;;
18084;SDS011;9169;44.492;11.372;2023-12-22T00:40:46;34.90;;;11.20;;
18084;SDS011;9169;44.492;11.372;2023-12-22T00:43:16;33.80;;;10.17;;
18084;SDS011;9169;44.492;11.372;2023-12-22T00:45:45;35.83;;;10.40;;
18084;SDS011;9169;44.492;11.372;2023-12-22T00:48:14;28.30;;;9.93;;
18084;SDS011;9169;44.492;11.372;2023-12-22T00:50:43;32.00;;;10.80;;
18084;SDS011;9169;44.492;11.372;2023-12-22T00:53:14;28.77;;;8.93;;
18084;SDS011;9169;44.492;11.372;2023-12-22T00:55:43;28.00;;;8.70;;
18084;SDS011;9169;44.492;11.372;2023-12-22T00:58:12;31.20;;;9.43;;
18084;SDS011;9169;44.492;11.372;2023-12-22T01:00:42;33.27;;;8.83;;
18084;SDS011;9169;44.492;11.372;2023-12-22T01:03:11;27.53;;;7.10;;
18084;SDS011;9169;44.492;11.372;2023-12-22T01:05:39;28.10;;;8.27;;
18084;SDS011;9169;44.492;11.372;2023-12-22T01:08:08;34.13;;;7.93;;
18084;SDS011;9169;44.492;11.372;2023-12-22T01:10:37;29.90;;;6.10;;
18084;SDS011;9169;44.492;11.372;2023-12-22T01:13:06;27.67;;;4.67;;
18084;SDS011;9169;44.492;11.372;2023-12-22T01:15:34;27.70;;;4.90;;
18084;SDS011;9169;44.492;11.372;2023-12-22T01:18:04;27.33;;;4.20;;
18084;SDS011;9169;44.492;11.372;2023-12-22T01:20:33;28.03;;;3.10;;
18084;SDS011;9169;44.492;11.372;2023-12-22T01:23:02;28.17;;;3.37;;
18084;SDS011;9169;44.492;11.372;2023-12-22T01:25:31;28.93;;;2.43;;
18084;SDS011;9169;44.492;11.372;2023-12-22T01:28:02;26.97;;;2.20;;
18084;SDS011;9169;44.492;11.372;2023-12-22T01:30:31;24.63;;;2.23;;
18084;SDS011;9169;44.492;11.372;2023-12-22T01:33:00;24.40;;;2.30;;
18084;SDS011;9169;44.492;11.372;2023-12-22T01:35:30;21.70;;;2.40;;
18084;SDS011;9169;44.492;11.372;2023-12-22T01:37:59;22.53;;;2.67;;
18084;SDS011;9169;44.492;11.372;2023-12-22T01:40:28;21.27;;;2.47;;
18084;SDS011;9169;44.492;11.372;2023-12-22T01:42:56;20.43;;;2.23;;
18084;SDS011;9169;44.492;11.372;2023-12-22T01:45:25;16.17;;;2.00;;
18084;SDS011;9169;44.492;11.372;2023-12-22T01:47:54;16.47;;;2.13;;
18084;SDS011;9169;44.492;11.372;2023-12-22T01:50:22;16.33;;;1.90;;
18084;SDS011;9169;44.492;11.372;2023-12-22T01:52:53;13.40;;;2.00;;
18084;SDS011;9169;44.492;11.372;2023-12-22T01:55:22;15.70;;;1.93;;
18084;SDS011;9169;44.492;11.372;2023-12-22T01:57:51;13.33;;;1.90;;
18084;SDS011;9169;44.492;11.372;2023-12-22T02:00:20;12.00;;;1.90;;
18084;SDS011;9169;44.492;11.372;2023-12-22T02:02:49;10.00;;;1.80;;
18084;SDS011;9169;44.492;11.372;2023-12-22T02:05:18;11.80;;;1.80;;
18084;SDS011;9169;44.492;11.372;2023-12-22T02:07:46;8.80;;;1.73;;
18084;SDS011;9169;44.492;11.372;2023-12-22T02:10:17;9.70;;;2.07;;
18084;SDS011;9169;44.492;11.372;2023-12-22T02:12:45;8.97;;;2.13;;
18084;SDS011;9169;44.492;11.372;2023-12-22T02:15:14;7.50;;;1.60;;
18084;SDS011;9169;44.492;11.372;2023-12-22T02:17:45;8.60;;;1.80;;
18084;SDS011;9169;44.492;11.372;2023-12-22T02:20:19;8.10;;;1.90;;
18084;SDS011;9169;44.492;11.372;2023-12-22T02:22:52;6.53;;;1.70;;
18084;SDS011;9169;44.492;11.372;2023-12-22T02:25:21;6.30;;;1.70;;
18084;SDS011;9169;44.492;11.372;2023-12-22T02:27:53;7.63;;;1.83;;
18084;SDS011;9169;44.492;11.372;2023-12-22T02:30:26;5.70;;;1.67;;
18084;SDS011;9169;44.492;11.372;2023-12-22T02:33:00;6.43;;;1.60;;
18084;SDS011;9169;44.492;11.372;2023-12-22T02:35:32;8.43;;;1.80;;
18084;SDS011;9169;44.492;11.372;2023-12-22T02:38:05;5.23;;;1.30;;
18084;SDS011;9169;44.492;11.372;2023-12-22T02:40:35;5.53;;;1.57;;
18084;SDS011;9169;44.492;11.372;2023-12-22T02:43:05;3.70;;;1.33;;
18084;SDS011;9169;44.492;11.372;2023-12-22T02:45:34;4.50;;;1.40;;
18084;SDS011;9169;44.492;11.372;2023-12-22T02:48:03;4.00;;;1.20;;
18084;SDS011;9169;44.492;11.372;2023-12-22T02:50:33;3.83;;;1.40;;
18084;SDS011;9169;44.492;11.372;2023-12-22T02:53:01;5.00;;;1.30;;
18084;SDS011;9169;44.492;11.372;2023-12-22T02:55:31;4.63;;;1.10;;
18084;SDS011;9169;44.492;11.372;2023-12-22T02:58:00;3.47;;;1.30;;
18084;SDS011;9169;44.492;11.372;2023-12-22T03:00:29;4.50;;;1.23;;
18084;SDS011;9169;44.492;11.372;2023-12-22T03:02:57;6.50;;;1.20;;
18084;SDS011;9169;44.492;11.372;2023-12-22T03:05:26;2.90;;;1.20;;
18084;SDS011;9169;44.492;11.372;2023-12-22T03:07:54;2.90;;;1.20;;
18084;SDS011;9169;44.492;11.372;2023-12-22T03:10:23;4.27;;;1.63;;
18084;SDS011;9169;44.492;11.372;2023-12-22T03:12:54;5.00;;;1.30;;
18084;SDS011;9169;44.492;11.372;2023-12-22T03:15:22;2.80;;;1.10;;
18084;SDS011;9169;44.492;11.372;2023-12-22T03:17:51;3.73;;;1.27;;
18084;SDS011;9169;44.492;11.372;2023-12-22T03:20:19;3.47;;;1.30;;
18084;SDS011;9169;44.492;11.372;2023-12-22T03:22:48;5.50;;;1.27;;
18084;SDS011;9169;44.492;11.372;2023-12-22T03:25:17;3.67;;;1.37;;
18084;SDS011;9169;44.492;11.372;2023-12-22T03:27:44;4.60;;;1.30;;
18084;SDS011;9169;44.492;11.372;2023-12-22T03:30:14;4.43;;;1.37;;
18084;SDS011;9169;44.492;11.372;2023-12-22T03:32:43;4.77;;;1.30;;
18084;SDS011;9169;44.492;11.372;2023-12-22T03:35:12;3.97;;;1.17;;
18084;SDS011;9169;44.492;11.372;2023-12-22T03:37:41;5.47;;;1.40;;
18084;SDS011;9169;44.492;11.372;2023-12-22T03:40:11;5.73;;;1.40;;
18084;SDS011;9169;44.492;11.372;2023-12-22T03:42:40;4.17;;;1.40;;
18084;SDS011;9169;44.492;11.372;2023-12-22T03:45:09;4.53;;;1.23;;
18084;SDS011;9169;44.492;11.372;2023-12-22T03:47:39;3.10;;;1.30;;
18084;SDS011;9169;44.492;11.372;2023-12-22T03:50:08;5.50;;;1.60;;
18084;SDS011;9169;44.492;11.372;2023-12-22T03:52:37;3.73;;;1.60;;
18084;SDS011;9169;44.492;11.372;2023-12-22T03:55:06;5.50;;;1.47;;
18084;SDS011;9169;44.492;11.372;2023-12-22T03:57:35;3.97;;;1.40;;
18084;SDS011;9169;44.492;11.372;2023-12-22T04:00:04;3.23;;;1.37;;
18084;SDS011;9169;44.492;11.372;2023-12-22T04:02:33;4.10;;;1.57;;
18084;SDS011;9169;44.492;11.372;2023-12-22T04:05:04;3.00;;;1.30;;
18084;SDS011;9169;44.492;11.372;2023-12-22T04:07:32;3.40;;;1.40;;
18084;SDS011;9169;44.492;11.372;2023-12-22T04:10:01;3.20;;;1.23;;
18084;SDS011;9169;44.492;11.372;2023-12-22T04:12:30;3.40;;;1.47;;
18084;SDS011;9169;44.492;11.372;2023-12-22T04:14:59;4.53;;;1.10;;
18084;SDS011;9169;44.492;11.372;2023-12-22T04:17:29;3.13;;;1.37;;
18084;SDS011;9169;44.492;11.372;2023-12-22T04:19:59;4.33;;;1.30;;
18084;SDS011;9169;44.492;11.372;2023-12-22T04:22:28;3.30;;;1.40;;
18084;SDS011;9169;44.492;11.372;2023-12-22T04:24:57;4.10;;;1.47;;
18084;SDS011;9169;44.492;11.372;2023-12-22T04:27:26;4.40;;;1.47;;
18084;SDS011;9169;44.492;11.372;2023-12-22T04:29:54;5.93;;;1.77;;
18084;SDS011;9169;44.492;11.372;2023-12-22T04:32:23;4.10;;;1.60;;
18084;SDS011;9169;44.492;11.372;2023-12-22T04:34:52;3.67;;;1.57;;
18084;SDS011;9169;44.492;11.372;2023-12-22T04:37:20;16.60;;;1.60;;
18084;SDS011;9169;44.492;11.372;2023-12-22T04:39:52;6.40;;;1.40;;
18084;SDS011;9169;44.492;11.372;2023-12-22T04:42:21;5.23;;;1.73;;
18084;SDS011;9169;44.492;11.372;2023-12-22T04:44:49;5.77;;;1.73;;
18084;SDS011;9169;44.492;11.372;2023-12-22T04:47:18;3.23;;;1.40;;
18084;SDS011;9169;44.492;11.372;2023-12-22T04:49:47;3.30;;;1.40;;
18084;SDS011;9169;44.492;11.372;2023-12-22T04:52:16;4.60;;;1.57;;
18084;SDS011;9169;44.492;11.372;2023-12-22T04:54:44;3.47;;;1.40;;
18084;SDS011;9169;44.492;11.372;2023-12-22T04:57:17;3.47;;;1.40;;
18084;SDS011;9169;44.492;11.372;2023-12-22T04:59:46;3.93;;;1.40;;
18084;SDS011;9169;44.492;11.372;2023-12-22T05:02:14;5.43;;;1.57;;
18084;SDS011;9169;44.492;11.372;2023-12-22T05:04:43;4.77;;;1.67;;
18084;SDS011;9169;44.492;11.372;2023-12-22T05:07:12;3.50;;;1.47;;
18084;SDS011;9169;44.492;11.372;2023-12-22T05:09:41;5.93;;;1.33;;
18084;SDS011;9169;44.492;11.372;2023-12-22T05:12:10;3.63;;;1.50;;
18084;SDS011;9169;44.492;11.372;2023-12-22T05:14:40;3.43;;;1.50;;
18084;SDS011;9169;44.492;11.372;2023-12-22T05:17:11;6.43;;;1.50;;
18084;SDS011;9169;44.492;11.372;2023-12-22T05:19:40;6.63;;;1.83;;
18084;SDS011;9169;44.492;11.372;2023-12-22T05:22:08;6.50;;;1.63;;
18084;SDS011;9169;44.492;11.372;2023-12-22T05:24:37;3.53;;;1.60;;
18084;SDS011;9169;44.492;11.372;2023-12-22T05:27:06;3.73;;;1.63;;
18084;SDS011;9169;44.492;11.372;2023-12-22T05:29:35;3.97;;;1.67;;
18084;SDS011;9169;44.492;11.372;2023-12-22T05:32:14;3.30;;;1.50;;
18084;SDS011;9169;44.492;11.372;2023-12-22T05:34:43;6.50;;;1.77;;
18084;SDS011;9169;44.492;11.372;2023-12-22T05:37:11;4.20;;;1.50;;
18084;SDS011;9169;44.492;11.372;2023-12-22T05:39:40;5.70;;;1.60;;
18084;SDS011;9169;44.492;11.372;2023-12-22T05:42:10;8.43;;;1.57;;
18084;SDS011;9169;44.492;11.372;2023-12-22T05:44:39;4.07;;;1.33;;
18084;SDS011;9169;44.492;11.372;2023-12-22T05:47:09;5.20;;;1.60;;
18084;SDS011;9169;44.492;11.372;2023-12-22T05:49:39;4.13;;;1.70;;
18084;SDS011;9169;44.492;11.372;2023-12-22T05:52:08;3.70;;;1.60;;
18084;SDS011;9169;44.492;11.372;2023-12-22T05:54:37;3.60;;;1.57;;
18084;SDS011;9169;44.492;11.372;2023-12-22T05:57:05;3.73;;;1.50;;
18084;SDS011;9169;44.492;11.372;2023-12-22T05:59:34;6.53;;;1.87;;
18084;SDS011;9169;44.492;11.372;2023-12-22T06:02:03;3.20;;;1.57;;
18084;SDS011;9169;44.492;11.372;2023-12-22T06:04:33;4.10;;;1.47;;
18084;SDS011;9169;44.492;11.372;2023-12-22T06:07:02;6.17;;;1.60;;
18084;SDS011;9169;44.492;11.372;2023-12-22T06:09:31;5.60;;;1.93;;
18084;SDS011;9169;44.492;11.372;2023-12-22T06:12:00;4.03;;;1.57;;
18084;SDS011;9169;44.492;11.372;2023-12-22T06:14:29;3.77;;;1.50;;
18084;SDS011;9169;44.492;11.372;2023-12-22T06:17:00;5.03;;;1.77;;
18084;SDS011;9169;44.492;11.372;2023-12-22T06:19:29;4.00;;;1.43;;
18084;SDS011;9169;44.492;11.372;2023-12-22T06:21:59;4.47;;;1.70;;
18084;SDS011;9169;44.492;11.372;2023-12-22T06:24:27;4.80;;;1.47;;
18084;SDS011;9169;44.492;11.372;2023-12-22T06:26:56;5.57;;;1.80;;
18084;SDS011;9169;44.492;11.372;2023-12-22T06:29:25;5.33;;;1.60;;
18084;SDS011;9169;44.492;11.372;2023-12-22T06:31:55;4.43;;;1.50;;
18084;SDS011;9169;44.492;11.372;2023-12-22T06:34:23;3.10;;;1.33;;
18084;SDS011;9169;44.492;11.372;2023-12-22T06:36:54;7.20;;;1.60;;
18084;SDS011;9169;44.492;11.372;2023-12-22T06:39:24;5.77;;;1.90;;
18084;SDS011;9169;44.492;11.372;2023-12-22T06:41:53;3.90;;;1.67;;
18084;SDS011;9169;44.492;11.372;2023-12-22T06:44:21;5.00;;;1.80;;
18084;SDS011;9169;44.492;11.372;2023-12-22T06:46:50;6.23;;;1.80;;
18084;SDS011;9169;44.492;11.372;2023-12-22T06:49:19;4.00;;;1.70;;
18084;SDS011;9169;44.492;11.372;2023-12-22T06:51:48;5.50;;;1.70;;
18084;SDS011;9169;44.492;11.372;2023-12-22T06:54:16;4.83;;;2.07;;
18084;SDS011;9169;44.492;11.372;2023-12-22T06:56:47;4.57;;;1.57;;
18084;SDS011;9169;44.492;11.372;2023-12-22T06:59:15;5.03;;;1.80;;
18084;SDS011;9169;44.492;11.372;2023-12-22T07:01:44;5.57;;;1.60;;
18084;SDS011;9169;44.492;11.372;2023-12-22T07:04:15;4.03;;;1.63;;
18084;SDS011;9169;44.492;11.372;2023-12-22T07:06:43;4.83;;;1.40;;
18084;SDS011;9169;44.492;11.372;2023-12-22T07:09:30;5.90;;;1.63;;
18084;SDS011;9169;44.492;11.372;2023-12-22T07:12:01;3.70;;;1.43;;
18084;SDS011;9169;44.492;11.372;2023-12-22T07:14:30;7.27;;;2.07;;
18084;SDS011;9169;44.492;11.372;2023-12-22T07:16:59;4.80;;;1.57;;
18084;SDS011;9169;44.492;11.372;2023-12-22T07:19:28;7.43;;;1.80;;
18084;SDS011;9169;44.492;11.372;2023-12-22T07:21:57;6.77;;;2.07;;
18084;SDS011;9169;44.492;11.372;2023-12-22T07:24:26;7.53;;;1.80;;
18084;SDS011;9169;44.492;11.372;2023-12-22T07:26:55;3.60;;;1.50;;
18084;SDS011;9169;44.492;11.372;2023-12-22T07:29:25;5.63;;;1.70;;
18084;SDS011;9169;44.492;11.372;2023-12-22T07:31:54;7.90;;;1.60;;
18084;SDS011;9169;44.492;11.372;2023-12-22T07:34:22;5.10;;;1.70;;
18084;SDS011;9169;44.492;11.372;2023-12-22T07:36:52;4.43;;;1.60;;
18084;SDS011;9169;44.492;11.372;2023-12-22T07:39:24;5.60;;;1.60;;
18084;SDS011;9169;44.492;11.372;2023-12-22T07:41:53;5.77;;;1.67;;
18084;SDS011;9169;44.492;11.372;2023-12-22T07:44:27;5.00;;;1.97;;
18084;SDS011;9169;44.492;11.372;2023-12-22T07:46:56;3.40;;;1.40;;
18084;SDS011;9169;44.492;11.372;2023-12-22T07:49:26;3.67;;;1.57;;
18084;SDS011;9169;44.492;11.372;2023-12-22T07:51:55;6.07;;;1.57;;
18084;SDS011;9169;44.492;11.372;2023-12-22T07:54:24;4.60;;;1.83;;
18084;SDS011;9169;44.492;11.372;2023-12-22T07:56:53;3.70;;;1.50;;
18084;SDS011;9169;44.492;11.372;2023-12-22T07:59:22;6.93;;;1.53;;
18084;SDS011;9169;44.492;11.372;2023-12-22T08:01:53;5.63;;;1.50;;
18084;SDS011;9169;44.492;11.372;2023-12-22T08:04:22;5.07;;;1.53;;
18084;SDS011;9169;44.492;11.372;2023-12-22T08:06:51;4.90;;;1.80;;
18084;SDS011;9169;44.492;11.372;2023-12-22T08:09:20;4.03;;;1.47;;
18084;SDS011;9169;44.492;11.372;2023-12-22T08:11:49;4.20;;;1.37;;
18084;SDS011;9169;44.492;11.372;2023-12-22T08:14:19;3.90;;;1.60;;
18084;SDS011;9169;44.492;11.372;2023-12-22T08:16:49;4.57;;;1.67;;
18084;SDS011;9169;44.492;11.372;2023-12-22T08:19:20;6.20;;;1.70;;
18084;SDS011;9169;44.492;11.372;2023-12-22T08:21:49;5.57;;;1.63;;
18084;SDS011;9169;44.492;11.372;2023-12-22T08:24:21;3.77;;;1.57;;
18084;SDS011;9169;44.492;11.372;2023-12-22T08:26:50;6.87;;;1.80;;
18084;SDS011;9169;44.492;11.372;2023-12-22T08:29:19;10.00;;;1.70;;
18084;SDS011;9169;44.492;11.372;2023-12-22T08:31:48;4.13;;;1.50;;
18084;SDS011;9169;44.492;11.372;2023-12-22T08:34:16;4.67;;;1.60;;
18084;SDS011;9169;44.492;11.372;2023-12-22T08:36:47;7.13;;;1.60;;
18084;SDS011;9169;44.492;11.372;2023-12-22T08:39:16;5.23;;;1.70;;
18084;SDS011;9169;44.492;11.372;2023-12-22T08:41:44;3.70;;;1.50;;
18084;SDS011;9169;44.492;11.372;2023-12-22T08:44:13;5.70;;;1.53;;
18084;SDS011;9169;44.492;11.372;2023-12-22T08:46:42;5.30;;;1.63;;
18084;SDS011;9169;44.492;11.372;2023-12-22T08:49:11;8.53;;;1.90;;
18084;SDS011;9169;44.492;11.372;2023-12-22T08:51:40;4.30;;;1.73;;
18084;SDS011;9169;44.492;11.372;2023-12-22T08:54:11;10.97;;;2.07;;
18084;SDS011;9169;44.492;11.372;2023-12-22T08:56:39;10.10;;;1.93;;
18084;SDS011;9169;44.492;11.372;2023-12-22T08:59:08;4.40;;;1.93;;
18084;SDS011;9169;44.492;11.372;2023-12-22T09:01:37;5.30;;;1.80;;
18084;SDS011;9169;44.492;11.372;2023-12-22T09:04:09;5.57;;;1.73;;
18084;SDS011;9169;44.492;11.372;2023-12-22T09:06:39;4.60;;;1.80;;
18084;SDS011;9169;44.492;11.372;2023-12-22T09:09:07;4.80;;;1.60;;
18084;SDS011;9169;44.492;11.372;2023-12-22T09:11:38;4.80;;;1.43;;
18084;SDS011;9169;44.492;11.372;2023-12-22T09:14:06;11.30;;;1.70;;
18084;SDS011;9169;44.492;11.372;2023-12-22T09:16:36;8.03;;;1.50;;
18084;SDS011;9169;44.492;11.372;2023-12-22T09:19:05;5.53;;;1.87;;
18084;SDS011;9169;44.492;11.372;2023-12-22T09:21:34;5.00;;;1.70;;
18084;SDS011;9169;44.492;11.372;2023-12-22T09:24:05;5.00;;;1.50;;
18084;SDS011;9169;44.492;11.372;2023-12-22T09:26:33;8.57;;;2.00;;
18084;SDS011;9169;44.492;11.372;2023-12-22T09:29:05;13.73;;;1.83;;
18084;SDS011;9169;44.492;11.372;2023-12-22T09:31:34;12.60;;;1.60;;
18084;SDS011;9169;44.492;11.372;2023-12-22T09:34:03;13.30;;;1.97;;
18084;SDS011;9169;44.492;11.372;2023-12-22T09:36:32;12.77;;;2.20;;
18084;SDS011;9169;44.492;11.372;2023-12-22T09:39:01;8.17;;;1.60;;
18084;SDS011;9169;44.492;11.372;2023-12-22T09:41:30;3.70;;;1.60;;
18084;SDS011;9169;44.492;11.372;2023-12-22T09:44:02;6.60;;;2.00;;
18084;SDS011;9169;44.492;11.372;2023-12-22T09:46:34;6.50;;;2.00;;
18084;SDS011;9169;44.492;11.372;2023-12-22T09:49:04;5.50;;;1.60;;
18084;SDS011;9169;44.492;11.372;2023-12-22T09:51:33;6.13;;;1.83;;
18084;SDS011;9169;44.492;11.372;2023-12-22T09:54:03;9.10;;;1.80;;
18084;SDS011;9169;44.492;11.372;2023-12-22T09:56:37;4.10;;;1.50;;
18084;SDS011;9169;44.492;11.372;2023-12-22T09:59:11;5.27;;;1.50;;
18084;SDS011;9169;44.492;11.372;2023-12-22T10:01:41;13.13;;;1.77;;
18084;SDS011;9169;44.492;11.372;2023-12-22T10:04:12;6.87;;;1.70;;
18084;SDS011;9169;44.492;11.372;2023-12-22T10:06:42;4.70;;;1.63;;
18084;SDS011;9169;44.492;11.372;2023-12-22T10:09:13;7.93;;;1.73;;
18084;SDS011;9169;44.492;11.372;2023-12-22T10:11:44;5.17;;;1.40;;
18084;SDS011;9169;44.492;11.372;2023-12-22T10:14:16;9.47;;;1.60;;
18084;SDS011;9169;44.492;11.372;2023-12-22T10:16:49;18.47;;;1.77;;
18084;SDS011;9169;44.492;11.372;2023-12-22T10:19:18;9.40;;;1.80;;
18084;SDS011;9169;44.492;11.372;2023-12-22T10:21:48;6.00;;;2.53;;
18084;SDS011;9169;44.492;11.372;2023-12-22T10:27:05;12.10;;;4.13;;
18084;SDS011;9169;44.492;11.372;2023-12-22T10:29:35;4.40;;;2.00;;
18084;SDS011;9169;44.492;11.372;2023-12-22T10:32:04;5.93;;;1.50;;
18084;SDS011;9169;44.492;11.372;2023-12-22T10:34:34;3.50;;;1.40;;
18084;SDS011;9169;44.492;11.372;2023-12-22T10:37:03;7.07;;;1.50;;
18084;SDS011;9169;44.492;11.372;2023-12-22T10:39:33;14.73;;;1.90;;
18084;SDS011;9169;44.492;11.372;2023-12-22T10:42:04;5.90;;;1.60;;
18084;SDS011;9169;44.492;11.372;2023-12-22T10:44:34;3.27;;;1.47;;
18084;SDS011;9169;44.492;11.372;2023-12-22T10:47:10;4.37;;;1.40;;
18084;SDS011;9169;44.492;11.372;2023-12-22T10:49:39;6.03;;;1.77;;
18084;SDS011;9169;44.492;11.372;2023-12-22T10:52:10;6.40;;;2.60;;
18084;SDS011;9169;44.492;11.372;2023-12-22T10:54:44;10.63;;;1.80;;
18084;SDS011;9169;44.492;11.372;2023-12-22T10:57:12;8.70;;;1.60;;
18084;SDS011;9169;44.492;11.372;2023-12-22T10:59:46;7.70;;;1.70;;
18084;SDS011;9169;44.492;11.372;2023-12-22T11:02:18;8.60;;;2.43;;
18084;SDS011;9169;44.492;11.372;2023-12-22T11:04:49;6.40;;;2.37;;
18084;SDS011;9169;44.492;11.372;2023-12-22T11:07:25;9.27;;;1.70;;
18084;SDS011;9169;44.492;11.372;2023-12-22T11:09:56;9.83;;;2.10;;
18084;SDS011;9169;44.492;11.372;2023-12-22T11:12:30;5.93;;;1.73;;
18084;SDS011;9169;44.492;11.372;2023-12-22T11:15:01;8.00;;;1.60;;
18084;SDS011;9169;44.492;11.372;2023-12-22T11:17:33;3.97;;;1.70;;
18084;SDS011;9169;44.492;11.372;2023-12-22T11:20:02;4.80;;;1.40;;
18084;SDS011;9169;44.492;11.372;2023-12-22T11:22:33;7.50;;;1.57;;
18084;SDS011;9169;44.492;11.372;2023-12-22T11:25:04;3.47;;;1.50;;
18084;SDS011;9169;44.492;11.372;2023-12-22T11:27:37;3.30;;;1.30;;
18084;SDS011;9169;44.492;11.372;2023-12-22T11:30:10;6.10;;;1.40;;
18084;SDS011;9169;44.492;11.372;2023-12-22T11:32:41;4.97;;;1.33;;
18084;SDS011;9169;44.492;11.372;2023-12-22T11:35:12;3.10;;;1.30;;
18084;SDS011;9169;44.492;11.372;2023-12-22T11:37:41;4.53;;;1.27;;
18084;SDS011;9169;44.492;11.372;2023-12-22T11:40:11;5.03;;;1.50;;
18084;SDS011;9169;44.492;11.372;2023-12-22T11:42:40;4.53;;;1.50;;
18084;SDS011;9169;44.492;11.372;2023-12-22T11:45:13;6.63;;;1.70;;
18084;SDS011;9169;44.492;11.372;2023-12-22T11:47:43;4.07;;;1.60;;
18084;SDS011;9169;44.492;11.372;2023-12-22T11:50:12;6.57;;;1.43;;
18084;SDS011;9169;44.492;11.372;2023-12-22T11:52:57;3.80;;;1.70;;
18084;SDS011;9169;44.492;11.372;2023-12-22T11:55:58;4.73;;;1.33;;
18084;SDS011;9169;44.492;11.372;2023-12-22T11:58:37;6.90;;;2.20;;
18084;SDS011;9169;44.492;11.372;2023-12-22T12:01:09;11.43;;;1.77;;
18084;SDS011;9169;44.492;11.372;2023-12-22T12:03:47;5.93;;;1.40;;
18084;SDS011;9169;44.492;11.372;2023-12-22T12:06:21;11.50;;;2.20;;
18084;SDS011;9169;44.492;11.372;2023-12-22T12:08:59;17.73;;;2.10;;
18084;SDS011;9169;44.492;11.372;2023-12-22T12:14:37;4.60;;;1.67;;
18084;SDS011;9169;44.492;11.372;2023-12-22T12:17:12;4.30;;;1.20;;
18084;SDS011;9169;44.492;11.372;2023-12-22T12:19:45;3.23;;;1.30;;
18084;SDS011;9169;44.492;11.372;2023-12-22T12:22:16;9.80;;;1.27;;
18084;SDS011;9169;44.492;11.372;2023-12-22T12:24:48;6.50;;;1.40;;
18084;SDS011;9169;44.492;11.372;2023-12-22T12:27:17;4.77;;;1.30;;
18084;SDS011;9169;44.492;11.372;2023-12-22T12:29:47;10.40;;;1.60;;
18084;SDS011;9169;44.492;11.372;2023-12-22T12:32:21;8.40;;;1.47;;
18084;SDS011;9169;44.492;11.372;2023-12-22T12:34:52;12.47;;;1.20;;
18084;SDS011;9169;44.492;11.372;2023-12-22T12:37:23;4.30;;;1.20;;
18084;SDS011;9169;44.492;11.372;2023-12-22T12:39:52;4.30;;;1.30;;
18084;SDS011;9169;44.492;11.372;2023-12-22T12:42:27;3.00;;;1.20;;
18084;SDS011;9169;44.492;11.372;2023-12-22T12:44:58;3.53;;;1.10;;
18084;SDS011;9169;44.492;11.372;2023-12-22T12:47:28;3.83;;;1.27;;
18084;SDS011;9169;44.492;11.372;2023-12-22T12:49:57;5.17;;;1.30;;
18084;SDS011;9169;44.492;11.372;2023-12-22T12:52:27;7.43;;;1.33;;
18084;SDS011;9169;44.492;11.372;2023-12-22T12:54:56;5.50;;;1.50;;
18084;SDS011;9169;44.492;11.372;2023-12-22T12:57:25;3.70;;;1.50;;
18084;SDS011;9169;44.492;11.372;2023-12-22T12:59:54;4.10;;;1.20;;
18084;SDS011;9169;44.492;11.372;2023-12-22T13:02:24;3.23;;;1.20;;
18084;SDS011;9169;44.492;11.372;2023-12-22T13:04:55;3.20;;;1.20;;
18084;SDS011;9169;44.492;11.372;2023-12-22T13:07:25;4.60;;;1.10;;
18084;SDS011;9169;44.492;11.372;2023-12-22T13:09:54;8.93;;;1.60;;
18084;SDS011;9169;44.492;11.372;2023-12-22T13:14:52;5.43;;;1.37;;
18084;SDS011;9169;44.492;11.372;2023-12-22T13:17:21;3.40;;;1.30;;
18084;SDS011;9169;44.492;11.372;2023-12-22T13:19:50;4.97;;;1.40;;
18084;SDS011;9169;44.492;11.372;2023-12-22T13:22:20;5.97;;;1.20;;
18084;SDS011;9169;44.492;11.372;2023-12-22T13:24:54;5.60;;;1.27;;
18084;SDS011;9169;44.492;11.372;2023-12-22T13:27:24;8.80;;;1.67;;
18084;SDS011;9169;44.492;11.372;2023-12-22T13:29:53;3.30;;;1.10;;
18084;SDS011;9169;44.492;11.372;2023-12-22T13:32:22;3.97;;;1.27;;
18084;SDS011;9169;44.492;11.372;2023-12-22T13:34:51;3.47;;;1.20;;
18084;SDS011;9169;44.492;11.372;2023-12-22T13:37:26;4.83;;;1.43;;
18084;SDS011;9169;44.492;11.372;2023-12-22T13:39:57;8.10;;;1.40;;
18084;SDS011;9169;44.492;11.372;2023-12-22T13:42:26;3.00;;;1.30;;
18084;SDS011;9169;44.492;11.372;2023-12-22T13:44:55;4.20;;;1.57;;
18084;SDS011;9169;44.492;11.372;2023-12-22T13:47:24;3.47;;;1.37;;
18084;SDS011;9169;44.492;11.372;2023-12-22T13:49:53;3.20;;;1.30;;
18084;SDS011;9169;44.492;11.372;2023-12-22T13:52:28;5.00;;;1.47;;
18084;SDS011;9169;44.492;11.372;2023-12-22T13:54:59;6.10;;;1.40;;
18084;SDS011;9169;44.492;11.372;2023-12-22T13:57:29;4.07;;;1.40;;
18084;SDS011;9169;44.492;11.372;2023-12-22T13:59:58;5.60;;;1.50;;
18084;SDS011;9169;44.492;11.372;2023-12-22T14:02:29;3.63;;;1.20;;
18084;SDS011;9169;44.492;11.372;2023-12-22T14:04:58;3.80;;;1.40;;
18084;SDS011;9169;44.492;11.372;2023-12-22T14:07:28;5.30;;;1.20;;
18084;SDS011;9169;44.492;11.372;2023-12-22T14:09:57;6.00;;;1.90;;
18084;SDS011;9169;44.492;11.372;2023-12-22T14:12:33;5.70;;;1.30;;
18084;SDS011;9169;44.492;11.372;2023-12-22T14:15:03;4.77;;;1.40;;
18084;SDS011;9169;44.492;11.372;2023-12-22T14:17:34;3.90;;;1.50;;
18084;SDS011;9169;44.492;11.372;2023-12-22T14:20:03;3.70;;;1.20;;
18084;SDS011;9169;44.492;11.372;2023-12-22T14:22:36;3.77;;;1.40;;
18084;SDS011;9169;44.492;11.372;2023-12-22T14:25:06;3.00;;;1.20;;
18084;SDS011;9169;44.492;11.372;2023-12-22T14:27:36;5.50;;;1.20;;
18084;SDS011;9169;44.492;11.372;2023-12-22T14:30:05;3.30;;;1.37;;
18084;SDS011;9169;44.492;11.372;2023-12-22T14:32:35;3.10;;;1.20;;
18084;SDS011;9169;44.492;11.372;2023-12-22T14:35:04;3.83;;;1.40;;
18084;SDS011;9169;44.492;11.372;2023-12-22T14:37:33;4.17;;;1.10;;
18084;SDS011;9169;44.492;11.372;2023-12-22T14:42:52;3.73;;;1.20;;
18084;SDS011;9169;44.492;11.372;2023-12-22T14:45:20;3.70;;;1.13;;
18084;SDS011;9169;44.492;11.372;2023-12-22T14:47:49;3.07;;;1.10;;
18084;SDS011;9169;44.492;11.372;2023-12-22T14:50:18;3.20;;;1.17;;
18084;SDS011;9169;44.492;11.372;2023-12-22T14:52:47;3.67;;;1.40;;
18084;SDS011;9169;44.492;11.372;2023-12-22T14:55:16;3.10;;;1.10;;
18084;SDS011;9169;44.492;11.372;2023-12-22T14:57:46;4.20;;;1.33;;
18084;SDS011;9169;44.492;11.372;2023-12-22T15:00:15;4.97;;;1.20;;
18084;SDS011;9169;44.492;11.372;2023-12-22T15:02:45;3.30;;;1.30;;
18084;SDS011;9169;44.492;11.372;2023-12-22T15:05:15;3.57;;;1.30;;
18084;SDS011;9169;44.492;11.372;2023-12-22T15:07:44;3.73;;;1.37;;
18084;SDS011;9169;44.492;11.372;2023-12-22T15:10:13;4.30;;;1.30;;
18084;SDS011;9169;44.492;11.372;2023-12-22T15:12:42;3.10;;;1.10;;